Time;durP1;ratioP1;P1;durP2;ratioP2;P2;SDS_P1;SDS_P2;PMS_P1;PMS_P2;Temp;Humidity;BMP_temperature;BMP_pressure;BME280_temperature;BME280_humidity;BME280_pressure;Samples;Min_cycle;Max_cycle;Signal;HPM_P1;HPM_P2
2022/07/03 00:03:34;;;;;;;12.60;5.85;;;;;;;17.50;80.01;101185.23;3668102;78;98817;-85
2022/07/03 00:08:35;;;;;;;10.65;5.90;;;;;;;17.47;80.16;101185.26;3663883;78;99131;-85
2022/07/03 00:13:36;;;;;;;13.43;6.20;;;;;;;17.43;80.24;101185.90;3663226;78;98970;-85
2022/07/03 00:18:37;;;;;;;11.17;7.00;;;;;;;17.39;80.52;101187.89;3652489;79;100312;-85
2022/07/03 00:23:58;;;;;;;14.38;6.17;;;;;;;17.36;80.63;101184.48;3656154;78;99710;-86
2022/07/03 00:29:01;;;;;;;10.48;5.97;;;;;;;17.31;80.81;101175.97;3655510;78;99036;-85
2022/07/03 00:34:05;;;;;;;10.53;5.67;;;;;;;17.29;81.04;101178.38;3667838;79;99349;-85
2022/07/03 00:39:06;;;;;;;10.45;5.90;;;;;;;17.24;81.15;101181.58;3665532;79;99283;-85
2022/07/03 00:44:07;;;;;;;11.48;6.03;;;;;;;17.23;81.39;101173.63;3689755;78;99052;-86
2022/07/03 00:49:10;;;;;;;10.65;5.55;;;;;;;17.19;81.36;101179.20;3683645;78;99119;-85
2022/07/03 00:54:14;;;;;;;9.33;5.60;;;;;;;17.16;81.69;101190.35;3683478;79;99102;-85
2022/07/03 00:59:15;;;;;;;11.63;6.08;;;;;;;17.13;81.77;101186.39;3662210;78;98821;-85
2022/07/03 01:04:36;;;;;;;11.50;5.87;;;;;;;17.07;81.97;101180.23;3690667;80;98720;-85
2022/07/03 01:10:22;;;;;;;11.00;5.90;;;;;;;17.06;82.12;101176.66;3688988;78;99054;-85
2022/07/03 01:15:43;;;;;;;8.68;5.20;;;;;;;17.03;82.16;101169.13;3685674;78;99230;-85
2022/07/03 01:20:50;;;;;;;9.45;5.90;;;;;;;16.96;82.30;101166.35;3670730;78;98686;-85
2022/07/03 01:25:52;;;;;;;11.38;6.00;;;;;;;16.89;82.26;101163.60;3688114;78;99169;-86
2022/07/03 01:30:54;;;;;;;9.45;5.12;;;;;;;16.85;82.47;101162.03;3678470;79;99050;-86
2022/07/03 01:36:05;;;;;;;10.20;5.55;;;;;;;16.83;82.66;101151.89;3676083;79;98912;-85
2022/07/03 01:41:10;;;;;;;10.03;5.22;;;;;;;16.78;82.79;101148.94;3670595;78;99117;-85
2022/07/03 01:46:13;;;;;;;11.53;5.80;;;;;;;16.75;83.10;101138.63;3680453;78;99217;-84
2022/07/03 01:51:15;;;;;;;8.90;5.12;;;;;;;16.73;83.35;101132.66;3676417;78;99222;-85
2022/07/03 01:56:20;;;;;;;9.10;5.20;;;;;;;16.71;83.40;101129.50;3681882;80;99201;-85
2022/07/03 02:01:31;;;;;;;9.30;4.85;;;;;;;16.69;83.65;101124.15;3665803;78;98889;-84
2022/07/03 02:06:55;;;;;;;8.83;5.15;;;;;;;16.67;83.63;101120.38;3663066;78;98890;-85
2022/07/03 02:11:58;;;;;;;9.18;4.85;;;;;;;16.62;83.64;101116.61;3670206;78;98985;-85
2022/07/03 02:17:10;;;;;;;8.58;5.58;;;;;;;16.54;83.61;101119.23;3671805;78;98465;-85
2022/07/03 02:22:13;;;;;;;9.63;5.75;;;;;;;16.55;84.18;101122.20;3675461;78;99069;-84
2022/07/03 02:27:27;;;;;;;8.90;5.62;;;;;;;16.54;83.91;101122.59;3676979;78;98826;-85
2022/07/03 02:32:32;;;;;;;9.03;4.70;;;;;;;16.47;84.03;101127.55;3673919;78;99212;-85
2022/07/03 02:37:39;;;;;;;8.85;5.15;;;;;;;16.42;84.37;101130.77;3685927;78;99253;-85
2022/07/03 02:43:15;;;;;;;9.08;5.37;;;;;;;16.41;84.40;101128.38;3685018;78;99107;-85
2022/07/03 02:48:39;;;;;;;12.10;6.70;;;;;;;16.38;84.62;101127.16;3670726;79;98950;-85
2022/07/03 02:53:51;;;;;;;9.30;5.53;;;;;;;16.35;84.67;101129.34;3695152;78;99033;-85
2022/07/03 02:58:57;;;;;;;11.12;6.30;;;;;;;16.33;84.88;101126.76;3643967;78;98698;-85
2022/07/03 03:04:03;;;;;;;12.63;7.25;;;;;;;16.31;84.84;101121.63;3671763;78;98921;-86
2022/07/03 03:09:08;;;;;;;10.03;6.37;;;;;;;16.28;84.93;101121.60;3676877;79;99116;-85
2022/07/03 03:14:13;;;;;;;9.73;6.62;;;;;;;16.25;85.06;101120.41;3695231;78;99360;-85
2022/07/03 03:19:14;;;;;;;10.80;7.20;;;;;;;16.25;85.36;101119.02;3691554;78;98767;-86
2022/07/03 03:24:16;;;;;;;15.20;10.25;;;;;;;16.24;85.42;101117.44;3678730;78;98956;-86
2022/07/03 03:29:17;;;;;;;14.00;8.85;;;;;;;16.20;85.82;101111.70;3662961;78;99071;-85
2022/07/03 03:34:20;;;;;;;16.82;9.08;;;;;;;16.14;85.79;101125.80;3684728;78;98698;-84
2022/07/03 03:39:21;;;;;;;17.67;10.78;;;;;;;16.10;86.14;101123.61;3695280;78;99025;-86
2022/07/03 03:44:22;;;;;;;13.63;9.63;;;;;;;16.07;86.82;101116.86;3671082;78;99281;-84
2022/07/03 03:49:24;;;;;;;13.98;9.58;;;;;;;16.07;86.37;101118.25;3680997;78;98969;-85
2022/07/03 03:54:25;;;;;;;14.60;10.40;;;;;;;16.02;86.65;101117.26;3658991;78;99411;-86
2022/07/03 03:59:26;;;;;;;18.02;11.85;;;;;;;16.03;87.16;101126.39;3678784;78;99511;-85
2022/07/03 04:04:27;;;;;;;15.90;11.28;;;;;;;16.06;86.59;101117.25;3702945;78;33969;-86
2022/07/03 04:09:28;;;;;;;16.32;9.60;;;;;;;15.97;87.90;101117.66;3720222;78;99318;-86
2022/07/03 04:14:29;;;;;;;12.23;8.18;;;;;;;15.94;87.54;101112.11;3735036;78;99341;-85
2022/07/03 04:19:31;;;;;;;14.98;10.93;;;;;;;16.01;87.81;101106.54;3721374;78;99093;-84
2022/07/03 04:24:32;;;;;;;12.93;10.13;;;;;;;16.05;88.10;101108.14;3723936;78;99214;-85
2022/07/03 04:29:33;;;;;;;12.13;8.78;;;;;;;16.06;87.97;101114.47;3726135;78;99240;-86
2022/07/03 04:34:34;;;;;;;15.00;9.83;;;;;;;16.09;88.31;101106.75;3724970;78;35043;-85
2022/07/03 04:39:35;;;;;;;13.53;9.40;;;;;;;16.18;88.21;101109.93;3723114;78;99122;-85
2022/07/03 04:44:36;;;;;;;14.10;9.87;;;;;;;16.27;88.59;101102.77;3742636;78;99327;-85
2022/07/03 04:49:37;;;;;;;15.23;9.90;;;;;;;16.34;88.42;101093.03;3715383;78;99081;-86
2022/07/03 04:54:38;;;;;;;12.70;9.00;;;;;;;16.44;88.93;101098.39;3726515;78;99521;-85
2022/07/03 04:59:39;;;;;;;14.58;8.45;;;;;;;16.52;88.50;101098.59;3726937;77;99047;-85
2022/07/03 05:04:40;;;;;;;11.65;8.55;;;;;;;16.64;88.43;101096.77;3722455;78;32493;-84
2022/07/03 05:09:44;;;;;;;12.05;7.95;;;;;;;16.82;88.82;101094.70;3724717;78;98904;-85
2022/07/03 05:14:45;;;;;;;11.97;8.03;;;;;;;17.04;88.89;101097.01;3702142;78;98863;-85
2022/07/03 05:19:47;;;;;;;12.63;8.58;;;;;;;17.35;88.41;101099.43;3666908;78;99051;-84
2022/07/03 05:24:48;;;;;;;10.58;7.03;;;;;;;17.74;88.08;101100.80;3676329;78;99310;-85
2022/07/03 05:29:49;;;;;;;12.15;7.05;;;;;;;18.29;87.96;101100.71;3684699;79;98866;-86
2022/07/03 05:34:50;;;;;;;9.50;5.83;;;;;;;19.03;86.28;101105.67;3694368;80;32412;-85
2022/07/03 05:39:51;;;;;;;10.03;6.22;;;;;;;19.80;81.63;101111.61;3678731;80;98996;-85
2022/07/03 05:44:54;;;;;;;9.48;3.90;;;;;;;20.56;78.72;101101.73;3680108;79;97974;-86
2022/07/03 05:49:55;;;;;;;6.05;2.95;;;;;;;21.28;78.09;101111.86;3667150;79;99287;-84
2022/07/03 05:54:56;;;;;;;6.72;2.45;;;;;;;22.31;77.22;101104.80;3690154;79;99306;-86
2022/07/03 05:59:57;;;;;;;6.40;2.53;;;;;;;23.18;73.99;101118.44;3670907;78;99208;-85
2022/07/03 06:04:58;;;;;;;5.42;2.45;;;;;;;23.52;67.70;101112.98;3692140;80;33057;-86
2022/07/03 06:09:59;;;;;;;4.83;2.20;;;;;;;24.36;68.18;101108.80;3682239;79;99421;-85
2022/07/03 06:15:00;;;;;;;5.20;2.47;;;;;;;25.02;64.88;101110.48;3671032;80;98594;-84
2022/07/03 06:20:01;;;;;;;5.92;2.12;;;;;;;25.62;63.72;101111.79;3684612;79;98743;-85
2022/07/03 06:25:02;;;;;;;7.58;2.15;;;;;;;26.19;62.24;101104.80;3680781;80;98878;-85
2022/07/03 06:30:05;;;;;;;3.60;1.62;;;;;;;26.45;58.19;101100.45;3651911;80;99204;-84
2022/07/03 06:35:07;;;;;;;6.35;1.90;;;;;;;26.57;57.87;101100.95;3664233;80;32523;-83
2022/07/03 06:40:09;;;;;;;6.83;1.95;;;;;;;26.72;55.94;101102.51;3671452;79;98916;-84
2022/07/03 06:45:11;;;;;;;3.87;1.47;;;;;;;27.06;55.29;101104.36;3676915;79;99118;-85
2022/07/03 06:50:12;;;;;;;6.92;1.57;;;;;;;27.53;51.98;101097.52;3675371;79;98744;-85
2022/07/03 06:55:13;;;;;;;4.17;1.45;;;;;;;27.12;52.20;101095.40;3672430;80;99164;-85
2022/07/03 07:00:15;;;;;;;6.08;1.72;;;;;;;27.02;49.51;101096.67;3674520;80;99129;-84
2022/07/03 07:05:16;;;;;;;4.45;1.35;;;;;;;27.29;52.37;101083.16;3683076;80;26351;-83
2022/07/03 07:10:17;;;;;;;4.08;1.50;;;;;;;28.12;51.65;101090.94;3640833;80;98498;-83
2022/07/03 07:15:18;;;;;;;4.50;1.62;;;;;;;28.46;49.39;101083.36;3686777;80;99065;-83
2022/07/03 07:20:19;;;;;;;2.85;1.22;;;;;;;28.31;44.11;101083.11;3673585;80;98777;-83
2022/07/03 07:25:20;;;;;;;2.58;1.25;;;;;;;27.93;43.48;101073.14;3690356;80;98878;-82
2022/07/03 07:30:21;;;;;;;4.10;1.40;;;;;;;27.69;48.32;101068.06;3689925;79;99164;-86
2022/07/03 07:35:22;;;;;;;4.12;1.45;;;;;;;28.32;49.44;101067.68;3692703;78;98874;-86
2022/07/03 07:40:24;;;;;;;3.87;1.50;;;;;;;29.01;47.99;101056.73;3693230;78;98223;-85
2022/07/03 07:45:25;;;;;;;3.60;1.50;;;;;;;29.26;46.89;101057.56;3682714;78;99095;-85
2022/07/03 07:50:27;;;;;;;2.87;1.17;;;;;;;29.35;46.30;101056.81;3689207;78;98780;-86
2022/07/03 07:55:27;;;;;;;6.62;1.52;;;;;;;29.51;46.03;101056.30;3723789;78;99200;-88
2022/07/03 08:00:28;;;;;;;4.00;1.40;;;;;;;29.90;45.35;101050.59;3680179;78;99252;-84
2022/07/03 08:05:36;;;;;;;4.78;1.35;;;;;;;29.87;44.03;101042.30;3693871;80;99428;-84
2022/07/03 08:10:45;;;;;;;4.65;1.62;;;;;;;29.91;44.26;101048.55;3680868;80;98770;-86
2022/07/03 08:15:49;;;;;;;2.77;1.30;;;;;;;29.77;42.99;101048.74;3685847;78;99283;-85
2022/07/03 08:20:50;;;;;;;3.17;1.22;;;;;;;29.79;43.40;101041.13;3686037;78;98961;-85
2022/07/03 08:25:51;;;;;;;3.62;1.57;;;;;;;29.82;43.84;101041.58;3696690;78;99494;-86
2022/07/03 08:30:52;;;;;;;3.20;1.47;;;;;;;29.85;43.48;101032.09;3697686;78;99364;-85
2022/07/03 08:35:54;;;;;;;2.22;1.30;;;;;;;29.60;42.47;101033.53;3729165;78;99412;-82
2022/07/03 08:40:55;;;;;;;3.12;1.20;;;;;;;29.56;42.67;101039.25;3715379;78;98498;-83
2022/07/03 08:45:59;;;;;;;4.95;1.40;;;;;;;30.03;42.68;101033.98;3711491;78;97857;-84
2022/07/03 08:51:01;;;;;;;3.17;1.55;;;;;;;30.10;42.19;101027.11;3715511;78;98635;-84
2022/07/03 08:56:04;;;;;;;4.45;1.52;;;;;;;30.10;41.53;101028.53;3709696;78;99343;-84
2022/07/03 09:01:05;;;;;;;5.22;1.40;;;;;;;30.64;42.09;101021.34;3715103;78;99425;-85
2022/07/03 09:06:07;;;;;;;3.00;1.67;;;;;;;30.91;40.73;101022.92;3733462;78;98892;-82
2022/07/03 09:11:08;;;;;;;4.43;1.63;;;;;;;31.36;40.38;101007.81;3713704;78;98568;-84
2022/07/03 09:16:17;;;;;;;3.35;1.30;;;;;;;31.87;39.58;101004.81;3720437;78;98972;-82
2022/07/03 09:21:18;;;;;;;4.67;1.45;;;;;;;32.21;39.41;101007.27;3711614;78;98717;-83
2022/07/03 09:26:21;;;;;;;2.52;1.25;;;;;;;32.60;39.03;100993.17;3723323;78;99242;-82
2022/07/03 09:31:25;;;;;;;3.55;1.50;;;;;;;32.86;38.72;101000.23;3669162;78;99232;-82
2022/07/03 09:36:47;;;;;;;2.83;1.60;;;;;;;33.16;37.79;100990.52;3664104;79;98783;-84
2022/07/03 09:41:55;;;;;;;5.20;1.47;;;;;;;32.78;37.08;100987.00;3677759;79;98677;-82
2022/07/03 09:47:20;;;;;;;4.35;1.70;;;;;;;32.72;37.51;100977.00;3676486;79;98904;-83
2022/07/03 09:52:34;;;;;;;;;;;;;;;32.75;36.05;100967.41;3665661;80;98454;-82
2022/07/03 09:57:38;;;;;;;2.33;1.40;;;;;;;32.67;36.99;100972.08;3668098;79;85030;-82
2022/07/03 10:03:06;;;;;;;3.98;1.32;;;;;;;32.68;36.17;100967.12;3649688;79;98882;-81
2022/07/03 10:08:15;;;;;;;3.40;1.40;;;;;;;32.50;36.44;100975.55;3636366;79;99224;-81
2022/07/03 10:13:16;;;;;;;3.08;1.40;;;;;;;32.55;36.88;100970.50;3653478;78;99050;-82
2022/07/03 10:18:20;;;;;;;3.85;1.22;;;;;;;32.14;36.26;100960.77;3652087;80;99266;-82
2022/07/03 10:23:24;;;;;;;4.17;1.42;;;;;;;31.78;36.97;100955.98;3662201;79;28451;-80
2022/07/03 10:28:25;;;;;;;5.27;1.67;;;;;;;32.04;36.95;100947.29;3664396;78;98920;-83
2022/07/03 10:33:27;;;;;;;4.80;1.50;;;;;;;31.83;36.66;100942.39;3703119;78;98980;-82
2022/07/03 10:38:42;;;;;;;2.60;1.60;;;;;;;31.39;36.88;100932.18;3702706;78;98929;-82
2022/07/03 10:49:10;;;;;;;2.35;1.40;;;;;;;30.89;37.28;100914.63;3705627;78;98874;-81
2022/07/03 10:54:20;;;;;;;5.65;1.75;;;;;;;30.10;37.86;100917.80;3701444;78;99374;-81
2022/07/03 10:59:21;;;;;;;2.98;1.50;;;;;;;29.92;38.67;100912.44;3705004;78;98901;-81
2022/07/03 11:04:22;;;;;;;2.22;1.17;;;;;;;30.39;38.82;100903.41;3717372;78;98832;-82
2022/07/03 11:09:23;;;;;;;4.45;1.85;;;;;;;30.72;37.75;100897.42;3697667;78;99027;-81
2022/07/03 11:14:27;;;;;;;3.55;1.27;;;;;;;31.26;37.84;100898.34;3687317;78;99126;-81
2022/07/03 11:19:30;;;;;;;2.15;1.47;;;;;;;31.85;36.87;100892.86;3686958;78;99211;-83
2022/07/03 11:24:39;;;;;;;2.12;1.20;;;;;;;32.20;36.55;100883.89;3694222;78;99248;-81
2022/07/03 11:29:41;;;;;;;5.37;1.60;;;;;;;32.15;37.07;100882.56;3664546;78;99353;-82
2022/07/03 11:34:44;;;;;;;1.67;1.50;;;;;;;32.43;36.21;100872.68;3676388;79;28825;-80
2022/07/03 11:39:49;;;;;;;4.70;1.60;;;;;;;32.19;36.24;100864.59;3700607;79;99289;-81
2022/07/03 11:44:50;;;;;;;3.42;1.62;;;;;;;32.23;36.03;100875.09;3711024;79;99081;-78
2022/07/03 11:49:51;;;;;;;3.98;1.62;;;;;;;32.22;36.67;100865.00;3704165;78;99150;-81
2022/07/03 11:54:53;;;;;;;3.35;1.55;;;;;;;32.17;36.03;100862.91;3707926;78;99288;-80
2022/07/03 12:00:05;;;;;;;1.87;1.17;;;;;;;32.07;36.48;100866.50;3708731;79;99311;-80
2022/07/03 12:05:15;;;;;;;3.70;1.70;;;;;;;31.85;36.50;100860.12;3679452;79;27413;-80
2022/07/03 12:10:16;;;;;;;2.98;1.22;;;;;;;31.79;36.67;100847.15;3668342;80;98839;-79
2022/07/03 12:15:18;;;;;;;3.62;1.60;;;;;;;31.82;35.54;100846.89;3685124;79;99097;-81
2022/07/03 12:20:19;;;;;;;3.75;1.40;;;;;;;31.94;34.63;100837.75;3675965;79;98813;-81
2022/07/03 12:25:20;;;;;;;4.10;1.57;;;;;;;31.62;34.69;100842.02;3695815;79;99169;-81
2022/07/03 12:30:25;;;;;;;3.25;1.77;;;;;;;32.05;35.30;100828.59;3680253;78;99505;-80
2022/07/03 12:35:27;;;;;;;3.50;1.50;;;;;;;32.47;34.99;100825.52;3676649;79;99214;-80
2022/07/03 12:40:29;;;;;;;3.05;1.57;;;;;;;32.29;34.32;100828.10;3675588;79;98404;-83
2022/07/03 12:45:29;;;;;;;3.40;1.60;;;;;;;32.53;34.79;100820.59;3677825;79;98670;-82
2022/07/03 12:50:51;;;;;;;2.77;1.32;;;;;;;32.95;34.43;100828.08;3674417;79;99662;-82
2022/07/03 12:55:51;;;;;;;2.60;1.62;;;;;;;33.27;34.48;100823.58;3670324;80;98902;-81
2022/07/03 13:00:52;;;;;;;2.37;1.25;;;;;;;33.82;33.57;100821.31;3672572;79;99293;-81
2022/07/03 13:05:54;;;;;;;3.12;1.37;;;;;;;33.27;34.33;100815.81;3679967;79;99296;-83
2022/07/03 13:10:57;;;;;;;1.85;1.60;;;;;;;32.65;34.63;100821.38;3667666;80;98484;-84
2022/07/03 13:15:58;;;;;;;2.50;1.40;;;;;;;32.65;33.21;100813.61;3667782;79;98671;-87
2022/07/03 13:20:59;;;;;;;2.83;1.40;;;;;;;32.51;33.14;100811.00;3641537;79;99063;-84
2022/07/03 13:26:00;;;;;;;3.87;1.47;;;;;;;32.21;33.51;100816.41;3671995;79;98834;-83
2022/07/03 13:31:01;;;;;;;3.22;1.50;;;;;;;32.12;34.11;100809.56;3660223;80;99241;-83
2022/07/03 13:36:02;;;;;;;2.10;1.25;;;;;;;32.06;34.88;100806.56;3667712;79;98870;-82
2022/07/03 13:41:04;;;;;;;3.37;1.32;;;;;;;32.13;35.49;100793.23;3656076;79;98708;-83
2022/07/03 13:46:05;;;;;;;4.05;1.30;;;;;;;32.20;34.71;100772.13;3659769;79;99076;-83
2022/07/03 13:51:06;;;;;;;2.35;1.47;;;;;;;32.16;35.07;100770.84;3648005;79;99020;-83
2022/07/03 13:56:07;;;;;;;2.17;1.40;;;;;;;32.34;34.92;100770.34;3619688;79;99267;-83
2022/07/03 14:01:08;;;;;;;4.60;1.60;;;;;;;32.30;34.72;100772.70;3646916;79;98966;-83
2022/07/03 14:06:09;;;;;;;2.15;1.30;;;;;;;32.06;34.74;100773.81;3638393;80;98821;-83
2022/07/03 14:11:10;;;;;;;5.22;1.55;;;;;;;31.64;35.11;100770.48;3641320;79;98371;-83
2022/07/03 14:16:12;;;;;;;4.10;1.30;;;;;;;31.57;35.13;100773.05;3656941;80;98633;-83
2022/07/03 14:21:13;;;;;;;3.05;1.37;;;;;;;31.14;35.02;100773.78;3645712;80;98756;-83
2022/07/03 14:26:14;;;;;;;2.05;1.30;;;;;;;30.88;35.37;100774.55;3656066;80;99302;-82
2022/07/03 14:36:25;;;;;;;2.45;1.50;;;;;;;30.81;36.09;100752.30;3688427;78;98847;-82
2022/07/03 14:41:26;;;;;;;3.52;1.60;;;;;;;30.74;36.44;100749.14;3684901;79;98801;-82
2022/07/03 14:46:27;;;;;;;1.72;1.45;;;;;;;30.50;36.20;100738.73;3674786;80;26642;-82
2022/07/03 14:51:28;;;;;;;3.25;1.67;;;;;;;30.50;37.16;100735.27;3690841;79;98704;-82
2022/07/03 14:56:30;;;;;;;2.95;1.55;;;;;;;30.35;36.56;100740.33;3661066;78;98863;-82
2022/07/03 15:01:33;;;;;;;3.30;1.57;;;;;;;30.12;37.02;100734.34;3664551;78;98856;-83
2022/07/03 15:06:34;;;;;;;4.10;1.80;;;;;;;29.85;36.64;100732.67;3681089;80;98881;-82
2022/07/03 15:17:17;;;;;;;3.08;1.47;;;;;;;29.74;37.50;100726.89;3687361;80;99009;-82
2022/07/03 15:22:20;;;;;;;3.47;1.90;;;;;;;29.21;37.26;100724.45;3652667;78;99084;-87
2022/07/03 15:27:23;;;;;;;4.25;1.75;;;;;;;29.21;38.28;100722.28;3689125;78;98791;-83
2022/07/03 15:32:30;;;;;;;2.95;1.65;;;;;;;29.30;38.21;100717.85;3682475;80;98052;-82
2022/07/03 15:38:02;;;;;;;3.00;1.80;;;;;;;29.08;38.47;100710.51;3648817;78;98460;-82
2022/07/03 15:43:54;;;;;;;2.30;1.80;;;;;;;29.13;38.69;100703.50;3648595;80;98406;-83
2022/07/03 15:49:06;;;;;;;4.40;2.20;;;;;;;29.38;38.68;100711.24;3658163;79;98347;-82
2022/07/03 15:54:16;;;;;;;3.02;1.95;;;;;;;29.29;37.79;100701.50;3684008;78;99119;-82
2022/07/03 15:59:21;;;;;;;3.60;1.60;;;;;;;29.17;37.54;100691.94;3654168;80;98995;-83
2022/07/03 16:04:36;;;;;;;3.05;1.87;;;;;;;28.94;37.36;100690.09;3693765;78;98460;-83
2022/07/03 16:09:38;;;;;;;3.10;1.90;;;;;;;28.77;38.12;100685.63;3683006;78;98255;-83
2022/07/03 16:14:44;;;;;;;4.17;1.95;;;;;;;28.61;38.02;100682.58;3696186;80;98897;-84
2022/07/03 16:19:48;;;;;;;3.52;1.90;;;;;;;28.42;37.69;100683.48;3665837;78;98210;-83
2022/07/03 16:24:51;;;;;;;4.83;2.20;;;;;;;28.05;38.19;100680.95;3644538;78;98021;-83
2022/07/03 16:29:53;;;;;;;1.75;1.60;;;;;;;27.85;38.08;100685.11;3677050;76;98042;-82
2022/07/03 16:35:24;;;;;;;2.92;1.60;;;;;;;27.66;39.08;100678.70;3600914;81;25400;-82
2022/07/03 16:40:28;;;;;;;2.90;2.00;;;;;;;27.51;40.51;100670.87;3677793;79;98912;-81
2022/07/03 16:45:33;;;;;;;3.05;2.02;;;;;;;27.42;41.40;100678.81;3707337;78;99146;-82
2022/07/03 16:50:35;;;;;;;2.12;1.50;;;;;;;27.22;41.31;100674.44;3688828;79;98388;-82
2022/07/03 16:55:36;;;;;;;3.33;1.80;;;;;;;27.03;41.23;100670.16;3671889;76;97981;-82
2022/07/03 17:00:39;;;;;;;3.00;1.98;;;;;;;26.92;41.38;100674.83;3694303;79;99074;-80
2022/07/03 17:05:44;;;;;;;6.08;2.15;;;;;;;26.79;41.36;100676.48;3697297;80;98402;-83
2022/07/03 17:10:48;;;;;;;3.47;1.90;;;;;;;26.62;40.73;100668.91;3689935;79;98222;-84
2022/07/03 17:15:55;;;;;;;4.20;2.30;;;;;;;26.45;40.60;100665.72;3651105;78;98310;-83
2022/07/03 17:21:00;;;;;;;4.00;1.90;;;;;;;26.25;40.87;100666.91;3671089;78;99140;-82
2022/07/03 17:26:05;;;;;;;7.30;2.22;;;;;;;26.17;41.71;100671.97;3691069;78;98366;-83
2022/07/03 17:31:14;;;;;;;3.33;2.07;;;;;;;26.08;41.71;100658.70;3662300;80;98444;-83
2022/07/03 17:36:25;;;;;;;5.15;2.62;;;;;;;26.02;42.26;100662.02;3580701;81;99161;-82
2022/07/03 17:41:32;;;;;;;2.17;1.80;;;;;;;25.96;42.21;100654.67;3674066;80;98057;-81
2022/07/03 17:46:36;;;;;;;6.55;2.30;;;;;;;25.86;42.63;100644.64;3686155;80;98630;-81
2022/07/03 17:51:39;;;;;;;3.97;1.90;;;;;;;25.82;42.58;100644.05;3672168;80;98644;-82
2022/07/03 17:56:40;;;;;;;3.55;2.10;;;;;;;25.75;43.00;100642.34;3695110;80;98833;-82
2022/07/03 18:01:41;;;;;;;3.83;2.50;;;;;;;25.69;43.23;100641.44;3688615;80;98044;-82
2022/07/03 18:06:42;;;;;;;3.58;2.25;;;;;;;25.61;43.22;100640.84;3690096;78;98502;-82
2022/07/03 18:12:01;;;;;;;3.17;2.02;;;;;;;25.49;43.48;100637.55;3694703;78;98964;-82
2022/07/03 18:17:07;;;;;;;2.72;1.70;;;;;;;25.36;43.79;100637.77;3688548;78;98482;-82
2022/07/03 18:22:08;;;;;;;3.67;2.55;;;;;;;25.24;44.19;100642.89;3693622;78;97885;-81
2022/07/03 18:27:13;;;;;;;2.85;2.12;;;;;;;25.13;45.00;100643.24;3688822;78;99282;-81
2022/07/03 18:32:16;;;;;;;2.15;1.77;;;;;;;24.97;45.83;100636.52;3704167;78;98846;-81
2022/07/03 18:37:19;;;;;;;3.58;1.98;;;;;;;24.84;46.60;100643.71;3680187;78;99009;-79
2022/07/03 18:42:20;;;;;;;3.12;1.90;;;;;;;24.69;47.04;100637.77;3692970;78;98023;-80
2022/07/03 18:47:22;;;;;;;6.35;2.10;;;;;;;24.55;47.56;100635.52;3682285;78;98422;-81
2022/07/03 18:52:58;;;;;;;4.80;2.30;;;;;;;24.39;48.43;100633.79;3688119;78;98040;-81
2022/07/03 18:58:32;;;;;;;4.30;2.08;;;;;;;24.25;49.35;100630.80;3658188;79;98827;-82
2022/07/03 19:03:51;;;;;;;5.42;2.40;;;;;;;24.09;50.74;100629.01;3677287;80;98645;-80
2022/07/03 19:09:04;;;;;;;3.30;2.00;;;;;;;23.93;51.84;100637.70;3682462;79;98532;-80
2022/07/03 19:14:12;;;;;;;1.98;1.72;;;;;;;23.77;52.80;100643.53;3688290;79;98050;-81
2022/07/03 19:19:15;;;;;;;4.28;2.20;;;;;;;23.63;53.53;100632.06;3668677;80;98780;-81
2022/07/03 19:24:18;;;;;;;5.97;2.80;;;;;;;23.47;54.43;100630.28;3677052;80;97989;-82
2022/07/03 19:29:20;;;;;;;9.88;3.60;;;;;;;23.35;55.22;100629.74;3685919;80;98530;-81
2022/07/03 19:34:21;;;;;;;5.03;2.70;;;;;;;23.20;55.99;100636.33;3676314;78;98664;-81
2022/07/03 19:39:22;;;;;;;3.37;2.20;;;;;;;23.07;56.41;100635.59;3672914;79;124408;-81
2022/07/03 19:44:23;;;;;;;4.97;2.57;;;;;;;22.94;56.70;100637.05;3679947;80;98931;-82
2022/07/03 19:49:26;;;;;;;5.28;2.83;;;;;;;22.82;57.53;100638.50;3683674;80;99154;-82
2022/07/03 19:54:27;;;;;;;8.08;3.35;;;;;;;22.71;58.28;100640.89;3708712;78;97952;-81
2022/07/03 19:59:30;;;;;;;8.33;2.90;;;;;;;22.58;59.09;100636.75;3682220;78;98530;-81
2022/07/03 20:04:32;;;;;;;7.53;2.37;;;;;;;22.47;59.70;100629.93;3707606;78;97559;-80
2022/07/03 20:09:34;;;;;;;4.60;2.80;;;;;;;22.36;60.45;100630.88;3697004;78;98511;-81
2022/07/03 20:14:38;;;;;;;5.97;2.92;;;;;;;22.26;61.03;100634.81;3684995;79;99228;-81
2022/07/03 20:19:45;;;;;;;8.03;2.97;;;;;;;22.13;61.38;100627.05;3685335;78;98124;-82
2022/07/03 20:25:01;;;;;;;5.10;2.85;;;;;;;22.02;61.83;100629.42;3694664;78;99155;-82
2022/07/03 20:29:50;;;;;;;3.80;2.30;;;;;;;21.91;62.21;100626.17;3684337;78;99425;-83
2022/07/03 20:34:51;;;;;;;9.30;4.20;;;;;;;21.80;62.40;100626.50;3636697;78;25922;-83
2022/07/03 20:39:53;;;;;;;6.17;2.80;;;;;;;21.70;62.77;100627.61;3621457;80;98791;-83
2022/07/03 20:44:54;;;;;;;5.35;2.83;;;;;;;21.61;63.62;100627.48;3605934;81;99274;-83
2022/07/03 20:49:55;;;;;;;5.87;2.60;;;;;;;21.52;63.79;100628.75;3622792;80;99046;-82
2022/07/03 20:54:56;;;;;;;5.83;3.53;;;;;;;21.45;64.36;100625.38;3628130;80;99304;-83
2022/07/03 20:59:57;;;;;;;3.70;2.50;;;;;;;21.38;64.83;100631.19;3636173;78;98319;-84
2022/07/03 21:04:59;;;;;;;7.13;3.30;;;;;;;21.30;65.22;100627.05;3625969;80;25737;-83
2022/07/03 21:10:00;;;;;;;4.80;2.70;;;;;;;21.21;65.73;100623.47;3650380;80;98892;-83
2022/07/03 21:15:01;;;;;;;7.33;2.87;;;;;;;21.15;65.95;100627.28;3653116;80;99093;-83
2022/07/03 21:20:02;;;;;;;4.70;2.60;;;;;;;21.06;66.22;100622.33;3616796;80;98919;-82
2022/07/03 21:25:04;;;;;;;6.63;3.30;;;;;;;20.99;66.68;100615.52;3642349;80;98851;-83
2022/07/03 21:30:06;;;;;;;5.63;3.47;;;;;;;20.94;66.87;100602.70;3653945;80;98739;-82
2022/07/03 21:35:07;;;;;;;6.10;3.07;;;;;;;20.85;67.04;100604.71;3691774;78;26121;-82
2022/07/03 21:40:10;;;;;;;6.23;2.83;;;;;;;20.77;67.41;100605.35;3713079;78;98389;-83
2022/07/03 21:45:12;;;;;;;7.95;3.30;;;;;;;20.70;67.55;100604.92;3706525;78;98721;-83
2022/07/03 21:50:12;;;;;;;6.83;3.37;;;;;;;20.62;67.74;100602.76;3685365;78;98801;-83
2022/07/03 21:55:23;;;;;;;6.43;3.10;;;;;;;20.52;67.84;100592.04;3693744;78;98004;-83
2022/07/03 22:00:24;;;;;;;6.47;3.15;;;;;;;20.44;67.89;100589.87;3707857;78;98871;-84
2022/07/03 22:05:25;;;;;;;5.87;3.37;;;;;;;20.36;68.25;100587.88;3726779;78;25905;-83
2022/07/03 22:10:27;;;;;;;5.00;3.03;;;;;;;20.28;68.19;100585.08;3707040;78;99179;-83
2022/07/03 22:15:29;;;;;;;5.60;3.30;;;;;;;20.24;68.86;100583.00;3697147;78;99212;-84
2022/07/03 22:20:31;;;;;;;7.40;3.50;;;;;;;20.20;68.70;100576.71;3687769;78;98834;-84
2022/07/03 22:25:32;;;;;;;7.15;3.37;;;;;;;20.16;69.10;100573.22;3698580;78;99135;-84
2022/07/03 22:30:33;;;;;;;7.07;3.30;;;;;;;20.13;69.33;100569.12;3697447;78;99033;-83
2022/07/03 22:35:35;;;;;;;6.90;3.63;;;;;;;20.09;69.68;100572.01;3615285;80;26262;-83
2022/07/03 22:40:36;;;;;;;7.43;3.77;;;;;;;20.07;70.10;100564.69;3614124;80;98626;-83
2022/07/03 22:45:37;;;;;;;7.27;3.87;;;;;;;20.08;70.46;100566.85;3623392;80;98683;-83
2022/07/03 22:50:38;;;;;;;7.87;3.87;;;;;;;20.04;70.60;100560.52;3608020;80;98790;-84
2022/07/03 22:55:41;;;;;;;10.00;4.10;;;;;;;20.01;70.85;100560.78;3619064;78;98761;-83
2022/07/03 23:00:42;;;;;;;7.62;3.90;;;;;;;19.95;70.60;100547.80;3594366;80;98997;-84
2022/07/03 23:05:43;;;;;;;7.07;3.73;;;;;;;19.88;70.62;100552.15;3603498;81;25392;-83
2022/07/03 23:10:44;;;;;;;10.87;4.20;;;;;;;19.81;71.00;100543.36;3593551;81;98453;-84
2022/07/03 23:15:45;;;;;;;10.60;3.87;;;;;;;19.73;71.08;100548.16;3607155;81;98058;-84
2022/07/03 23:20:46;;;;;;;6.87;3.70;;;;;;;19.65;71.00;100550.33;3598899;81;99050;-83
2022/07/03 23:25:47;;;;;;;8.00;3.85;;;;;;;19.58;71.13;100532.36;3608696;80;99176;-82
2022/07/03 23:30:48;;;;;;;7.20;3.87;;;;;;;19.53;71.31;100537.66;3600668;80;98567;-82
2022/07/03 23:35:49;;;;;;;9.60;4.13;;;;;;;19.47;71.52;100540.20;3666695;78;98466;-82
2022/07/03 23:40:50;;;;;;;7.40;3.63;;;;;;;19.34;71.09;100528.13;3665432;78;98453;-83
2022/07/03 23:45:51;;;;;;;9.53;3.83;;;;;;;19.29;71.52;100532.82;3657042;79;99209;-83
2022/07/03 23:50:53;;;;;;;8.73;3.73;;;;;;;19.31;72.34;100526.22;3681820;79;98727;-83